Time;durP1;ratioP1;P1;durP2;ratioP2;P2;SDS_P1;SDS_P2;PMS_P1;PMS_P2;Temp;Humidity;BMP_temperature;BMP_pressure;BME280_temperature;BME280_humidity;BME280_pressure;Samples;Min_cycle;Max_cycle;Signal;HPM_P1;HPM_P2
2022/10/28 00:02:20;;;;;;;;;;;;;;;12.52;85.84;98856.59;4908604;29;20034;-59
2022/10/28 00:04:48;;;;;;;;;;;;;;;12.49;86.08;98854.47;4888945;29;19978;-60
2022/10/28 00:07:15;;;;;;;;;;;;;;;12.49;85.86;98859.91;4901738;29;19927;-60
2022/10/28 00:12:36;;;;;;;;;;;;;;;12.51;85.84;98854.97;4893927;29;19927;-60
2022/10/28 00:15:05;;;;;;;;;;;;;;;12.49;86.06;98851.75;4900636;29;20428;-59
2022/10/28 00:17:32;;;;;;;;;;;;;;;12.49;86.08;98857.19;4896834;29;19932;-59
2022/10/28 00:20:00;;;;;;;;;;;;;;;12.44;85.71;98865.47;4895579;29;19927;-58
2022/10/28 00:22:32;;;;;;;;;;;;;;;12.42;85.89;98856.78;4895286;29;20735;-59
2022/10/28 00:25:01;;;;;;;;;;;;;;;12.40;86.22;98861.72;4899590;29;19935;-59
2022/10/28 00:27:30;;;;;;;;;;;;;;;12.41;86.12;98860.63;4893111;29;19934;-58
2022/10/28 00:29:59;;;;;;;;;;;;;;;12.37;86.14;98859.59;4885912;29;19951;-60
2022/10/28 00:32:28;;;;;;;;;;;;;;;12.38;86.32;98860.41;4898837;29;19938;-60
2022/10/28 00:34:56;;;;;;;;;;;;;;;12.42;86.04;98862.25;4891556;29;19931;-58
2022/10/28 00:37:24;;;;;;;;;;;;;;;12.38;86.21;98855.75;4889285;29;19928;-59
2022/10/28 00:39:51;;;;;;;;;;;;;;;12.40;85.92;98853.53;4890792;29;19970;-59
2022/10/28 00:42:20;;;;;;;;;;;;;;;12.40;86.13;98850.81;4894040;29;20007;-59
2022/10/28 00:44:52;;;;;;;;;;;;;;;12.40;86.30;98850.81;4897918;29;20392;-59
2022/10/28 00:47:24;;;;;;;;;;;;;;;12.45;86.17;98850.72;4893445;29;19987;-59
2022/10/28 00:49:53;;;;;;;;;;;;;;;12.45;86.40;98852.63;4898608;29;19934;-60
2022/10/28 00:52:22;;;;;;;;;;;;;;;12.47;86.74;98853.16;4890252;29;19982;-61
2022/10/28 00:54:50;;;;;;;;;;;;;;;12.46;86.86;98852.34;4897284;29;19932;-60
2022/10/28 00:57:18;;;;;;;;;;;;;;;12.49;86.92;98846.28;4907159;29;19954;-60
2022/10/28 00:59:47;;;;;;;;;;;;;;;12.53;86.72;98850.03;4898671;29;19927;-61
2022/10/28 01:02:19;;;;;;;;;;;;;;;12.57;86.64;98851.06;4902178;29;20082;-61
2022/10/28 01:04:49;;;;;;;;;;;;;;;12.57;86.44;98859.25;4898373;29;20420;-61
2022/10/28 01:07:41;;;;;;;;;;;;;;;12.54;86.40;98870.72;4901700;29;20415;-58
2022/10/28 01:10:09;;;;;;;;;;;;;;;12.55;86.42;98866.91;4892752;29;19966;-61
2022/10/28 01:12:40;;;;;;;;;;;;;;;12.53;86.16;98858.22;4897844;29;19931;-61
2022/10/28 01:15:10;;;;;;;;;;;;;;;12.50;86.28;98866.97;4903253;29;19997;-60
2022/10/28 01:17:40;;;;;;;;;;;;;;;12.51;86.24;98862.34;4895161;29;19935;-59
2022/10/28 01:20:24;;;;;;;;;;;;;;;12.51;85.89;98860.41;4897415;29;19935;-59
2022/10/28 01:22:53;;;;;;;;;;;;;;;12.47;85.86;98843.06;4899010;29;19928;-60
2022/10/28 01:25:46;;;;;;;;;;;;;;;12.46;85.87;98852.34;4897248;29;19931;-61
2022/10/28 01:28:27;;;;;;;;;;;;;;;12.47;86.10;98848.53;4888233;29;20369;-60
2022/10/28 01:31:04;;;;;;;;;;;;;;;12.43;86.00;98846.69;4897018;29;19927;-60
2022/10/28 01:33:32;;;;;;;;;;;;;;;12.37;86.08;98848.72;4893034;29;19928;-61
2022/10/28 01:36:01;;;;;;;;;;;;;;;12.35;85.84;98853.63;4902235;29;19928;-60
2022/10/28 01:38:30;;;;;;;;;;;;;;;12.31;86.18;98849.91;4893632;29;19932;-59
2022/10/28 01:41:00;;;;;;;;;;;;;;;12.32;86.09;98843.34;4893366;29;19928;-61
2022/10/28 01:43:28;;;;;;;;;;;;;;;12.30;86.21;98840.94;4897273;29;19931;-61
2022/10/28 01:45:58;;;;;;;;;;;;;;;12.27;86.19;98846.16;4904295;29;19934;-60
2022/10/28 01:51:21;;;;;;;;;;;;;;;12.20;86.01;98837.56;4898322;29;19938;-61
2022/10/28 01:53:49;;;;;;;;;;;;;;;12.16;86.07;98842.00;4896281;29;19934;-59
2022/10/28 01:56:17;;;;;;;;;;;;;;;12.15;86.08;98838.47;4898254;29;19932;-58
2022/10/28 01:58:45;;;;;;;;;;;;;;;12.13;85.99;98827.03;4900537;29;19928;-61
2022/10/28 02:01:38;;;;;;;;;;;;;;;12.13;86.04;98826.25;4899669;29;19928;-59
2022/10/28 02:04:10;;;;;;;;;;;;;;;12.14;86.02;98819.69;4912390;29;20307;-61
2022/10/28 02:06:38;;;;;;;;;;;;;;;12.10;85.90;98813.22;4907424;29;19935;-60
2022/10/28 02:09:15;;;;;;;;;;;;;;;12.10;86.17;98818.69;4910404;29;19935;-59
2022/10/28 02:11:46;;;;;;;;;;;;;;;12.11;86.29;98812.13;4900755;29;19933;-61
2022/10/28 02:14:22;;;;;;;;;;;;;;;12.13;86.44;98816.16;4897888;29;20018;-61
2022/10/28 02:16:52;;;;;;;;;;;;;;;12.13;86.53;98810.69;4902959;29;19936;-61
2022/10/28 02:19:25;;;;;;;;;;;;;;;12.15;86.66;98808.50;4898421;29;19936;-60
2022/10/28 02:21:56;;;;;;;;;;;;;;;12.14;86.55;98806.88;4901695;29;19966;-61
2022/10/28 02:24:24;;;;;;;;;;;;;;;12.17;86.82;98813.66;4895667;29;19928;-61
2022/10/28 02:26:54;;;;;;;;;;;;;;;12.19;86.66;98814.94;4897468;29;19931;-61
2022/10/28 02:29:27;;;;;;;;;;;;;;;12.20;86.67;98800.25;4897071;29;19927;-59
2022/10/28 02:31:55;;;;;;;;;;;;;;;12.21;86.62;98792.88;4896043;29;19972;-60
2022/10/28 02:34:26;;;;;;;;;;;;;;;12.22;86.70;98802.66;4897584;29;19927;-61
2022/10/28 02:37:18;;;;;;;;;;;;;;;12.21;86.49;98801.03;4886678;29;19928;-61
2022/10/28 02:39:48;;;;;;;;;;;;;;;12.24;86.38;98803.16;4897785;29;19935;-61
2022/10/28 02:42:17;;;;;;;;;;;;;;;12.20;86.40;98810.34;4888300;29;19935;-61
2022/10/28 02:44:45;;;;;;;;;;;;;;;12.19;86.54;98814.13;4907666;29;20015;-61
2022/10/28 02:47:14;;;;;;;;;;;;;;;12.21;86.30;98814.66;4884408;29;19928;-61
2022/10/28 02:49:43;;;;;;;;;;;;;;;12.21;86.41;98820.13;4894408;29;20376;-61
2022/10/28 02:52:11;;;;;;;;;;;;;;;12.21;86.24;98823.66;4895335;29;19960;-61
2022/10/28 02:54:39;;;;;;;;;;;;;;;12.23;86.08;98820.63;4893560;29;19928;-60
2022/10/28 02:57:08;;;;;;;;;;;;;;;12.24;86.06;98814.06;4897322;29;19928;-60
2022/10/28 02:59:35;;;;;;;;;;;;;;;12.25;85.83;98818.38;4896259;29;19975;-60
2022/10/28 03:02:04;;;;;;;;;;;;;;;12.23;85.95;98809.72;4895155;29;19975;-61
2022/10/28 03:04:58;;;;;;;;;;;;;;;12.22;85.86;98813.56;4896672;29;20381;-61
2022/10/28 03:07:26;;;;;;;;;;;;;;;12.21;86.17;98807.31;4894284;29;19935;-60
2022/10/28 03:12:46;;;;;;;;;;;;;;;12.17;86.23;98810.91;4894367;29;19931;-61
2022/10/28 03:15:14;;;;;;;;;;;;;;;12.15;86.49;98805.78;4900447;29;19931;-61
2022/10/28 03:17:43;;;;;;;;;;;;;;;12.16;86.64;98809.31;4894420;29;19927;-61
2022/10/28 03:20:12;;;;;;;;;;;;;;;12.15;86.87;98810.41;4895670;29;19932;-60
2022/10/28 03:22:42;;;;;;;;;;;;;;;12.15;86.81;98810.41;4895822;29;19927;-60
2022/10/28 03:25:12;;;;;;;;;;;;;;;12.12;86.84;98809.09;4896498;29;19934;-61
2022/10/28 03:27:40;;;;;;;;;;;;;;;12.09;87.02;98811.59;4907893;29;19984;-61
2022/10/28 03:30:08;;;;;;;;;;;;;;;12.06;87.20;98808.38;4896456;29;19934;-60
2022/10/28 03:32:38;;;;;;;;;;;;;;;12.07;86.96;98809.19;4896499;29;19935;-61
2022/10/28 03:35:07;;;;;;;;;;;;;;;12.04;86.96;98802.44;4894852;29;19935;-58
2022/10/28 03:37:36;;;;;;;;;;;;;;;12.06;87.21;98804.84;4887369;29;19935;-60
2022/10/28 03:40:06;;;;;;;;;;;;;;;12.06;87.01;98807.56;4885008;29;19987;-61
2022/10/28 03:42:34;;;;;;;;;;;;;;;12.02;86.91;98804.63;4888749;29;19927;-60
2022/10/28 03:45:05;;;;;;;;;;;;;;;12.01;87.16;98803.00;4891518;29;20260;-61
2022/10/28 03:47:34;;;;;;;;;;;;;;;12.03;87.08;98803.50;4888521;29;19931;-59
2022/10/28 03:50:02;;;;;;;;;;;;;;;12.02;87.11;98792.91;4892851;29;20258;-58
2022/10/28 03:52:56;;;;;;;;;;;;;;;12.02;86.95;98798.38;4886739;29;20266;-60
2022/10/28 03:55:24;;;;;;;;;;;;;;;12.00;86.90;98798.69;4908513;29;20459;-60
2022/10/28 03:57:52;;;;;;;;;;;;;;;11.96;86.86;98794.94;4888788;29;20297;-60
2022/10/28 04:00:21;;;;;;;;;;;;;;;11.96;87.09;98791.41;4890751;29;19928;-60
2022/10/28 04:02:50;;;;;;;;;;;;;;;11.95;87.03;98797.97;4906149;29;19927;-60
2022/10/28 04:05:24;;;;;;;;;;;;;;;11.96;87.26;98797.66;4893583;29;19928;-60
2022/10/28 04:07:52;;;;;;;;;;;;;;;11.97;87.04;98791.09;4880700;29;19943;-59
2022/10/28 04:10:24;;;;;;;;;;;;;;;11.95;87.12;98793.31;4891493;29;20018;-61
2022/10/28 04:12:52;;;;;;;;;;;;;;;11.92;87.07;98803.97;4895203;29;19999;-60
2022/10/28 04:15:20;;;;;;;;;;;;;;;11.91;87.25;98803.19;4892512;29;19935;-60
2022/10/28 04:17:48;;;;;;;;;;;;;;;11.91;86.99;98805.91;4893587;29;19927;-60
2022/10/28 04:20:17;;;;;;;;;;;;;;;11.92;87.26;98804.78;4897313;29;19967;-61
2022/10/28 04:22:45;;;;;;;;;;;;;;;11.94;87.04;98801.78;4897825;29;20022;-60
2022/10/28 04:25:19;;;;;;;;;;;;;;;11.92;86.98;98804.78;4895979;29;20030;-60
2022/10/28 04:27:49;;;;;;;;;;;;;;;11.92;86.73;98793.91;4896029;29;19931;-60
2022/10/28 04:30:17;;;;;;;;;;;;;;;11.92;86.88;98790.38;4892229;29;19931;-60
2022/10/28 04:32:45;;;;;;;;;;;;;;;11.92;86.84;98793.91;4892974;29;19931;-59
2022/10/28 04:35:12;;;;;;;;;;;;;;;11.91;86.74;98796.94;4895413;29;19931;-59
2022/10/28 04:37:40;;;;;;;;;;;;;;;11.95;86.85;98800.69;4894662;29;19958;-61
2022/10/28 04:40:09;;;;;;;;;;;;;;;11.99;86.70;98801.72;4890519;29;20373;-61
2022/10/28 04:42:37;;;;;;;;;;;;;;;11.98;86.51;98811.75;4899910;29;19938;-61
2022/10/28 04:45:09;;;;;;;;;;;;;;;11.94;86.48;98818.13;4915024;29;19928;-59
2022/10/28 04:47:39;;;;;;;;;;;;;;;11.97;86.68;98810.16;4896788;29;19928;-60
2022/10/28 04:50:32;;;;;;;;;;;;;;;11.95;86.76;98814.28;4905547;29;19927;-60
2022/10/28 04:53:09;;;;;;;;;;;;;;;12.00;86.48;98806.84;4912864;29;19927;-61
2022/10/28 04:58:29;;;;;;;;;;;;;;;12.02;86.39;98807.34;4897023;29;19978;-62
2022/10/28 05:00:59;;;;;;;;;;;;;;;12.00;86.29;98809.56;4890649;29;19932;-61
2022/10/28 05:03:27;;;;;;;;;;;;;;;11.96;86.49;98814.00;4889763;29;19928;-61
2022/10/28 05:05:55;;;;;;;;;;;;;;;11.95;86.53;98809.66;4900097;29;19963;-61
2022/10/28 05:08:22;;;;;;;;;;;;;;;11.91;86.57;98807.81;4893810;29;19931;-60
2022/10/28 05:10:50;;;;;;;;;;;;;;;11.94;86.65;98807.25;4897852;29;19931;-59
2022/10/28 05:13:19;;;;;;;;;;;;;;;11.96;86.35;98816.72;4893840;29;19942;-60
2022/10/28 05:15:47;;;;;;;;;;;;;;;11.93;86.19;98825.50;4909706;29;20030;-61
2022/10/28 05:18:17;;;;;;;;;;;;;;;11.90;86.33;98830.72;4897236;29;20187;-61
2022/10/28 05:20:45;;;;;;;;;;;;;;;11.85;86.45;98837.03;4893161;29;19946;-60
2022/10/28 05:23:13;;;;;;;;;;;;;;;11.87;86.64;98842.19;4894577;29;19931;-58
2022/10/28 05:25:41;;;;;;;;;;;;;;;11.87;86.50;98834.81;4898093;29;19934;-60
2022/10/28 05:28:09;;;;;;;;;;;;;;;11.91;86.65;98833.13;4897844;29;19934;-60
2022/10/28 05:30:37;;;;;;;;;;;;;;;11.82;87.32;98828.66;4898811;29;19932;-61
2022/10/28 05:33:05;;;;;;;;;;;;;;;11.91;86.92;98824.97;4893508;29;19928;-60
2022/10/28 05:35:34;;;;;;;;;;;;;;;11.87;86.90;98821.22;4894643;29;19942;-59
2022/10/28 05:38:02;;;;;;;;;;;;;;;11.92;86.60;98818.41;4895890;29;20151;-61
2022/10/28 05:40:31;;;;;;;;;;;;;;;11.92;86.28;98810.25;4899035;29;19927;-58
2022/10/28 05:42:59;;;;;;;;;;;;;;;11.92;86.17;98812.97;4896743;29;19932;-60
2022/10/28 05:45:52;;;;;;;;;;;;;;;11.93;86.29;98813.75;4895799;29;20285;-60
2022/10/28 05:48:20;;;;;;;;;;;;;;;11.91;86.46;98816.00;4896731;29;19939;-58
2022/10/28 05:50:49;;;;;;;;;;;;;;;11.92;86.23;98812.97;4894808;29;20014;-59
2022/10/28 05:53:17;;;;;;;;;;;;;;;11.97;86.03;98828.41;4898376;29;19936;-59
2022/10/28 05:55:45;;;;;;;;;;;;;;;11.85;86.47;98825.34;4888123;29;19960;-60
2022/10/28 06:01:07;;;;;;;;;;;;;;;11.91;86.16;98819.53;4898071;29;20303;-60
2022/10/28 06:03:35;;;;;;;;;;;;;;;11.97;86.13;98831.94;4898155;29;19928;-60
2022/10/28 06:06:04;;;;;;;;;;;;;;;11.92;86.21;98823.84;4891019;29;19932;-60
2022/10/28 06:08:32;;;;;;;;;;;;;;;11.90;86.22;98831.53;4895730;29;19928;-59
2022/10/28 06:11:01;;;;;;;;;;;;;;;11.90;86.33;98823.34;4891161;29;19927;-60
2022/10/28 06:13:29;;;;;;;;;;;;;;;11.90;86.53;98834.25;4892871;29;19927;-60
2022/10/28 06:15:57;;;;;;;;;;;;;;;11.95;86.20;98847.78;4906286;29;19931;-60
2022/10/28 06:18:25;;;;;;;;;;;;;;;11.97;86.18;98842.84;4900400;29;19931;-60
2022/10/28 06:20:53;;;;;;;;;;;;;;;12.01;86.06;98845.78;4899383;29;19938;-59
2022/10/28 06:23:22;;;;;;;;;;;;;;;12.09;85.96;98844.28;4896751;29;19938;-59
2022/10/28 06:25:50;;;;;;;;;;;;;;;12.13;85.82;98853.47;4901267;29;19931;-59
2022/10/28 06:28:19;;;;;;;;;;;;;;;12.18;85.82;98853.38;4896123;29;19931;-59
2022/10/28 06:30:46;;;;;;;;;;;;;;;12.19;85.84;98849.56;4886480;29;19963;-59
2022/10/28 06:33:14;;;;;;;;;;;;;;;12.10;86.70;98851.38;4888353;29;19927;-60
2022/10/28 06:35:42;;;;;;;;;;;;;;;12.15;86.82;98854.00;4893096;29;20322;-59
2022/10/28 06:38:10;;;;;;;;;;;;;;;12.22;86.37;98852.50;4895416;29;20352;-60
2022/10/28 06:40:39;;;;;;;;;;;;;;;12.28;86.38;98853.22;4885277;29;19931;-60
2022/10/28 06:43:07;;;;;;;;;;;;;;;12.27;86.21;98855.13;4906992;29;20042;-60
2022/10/28 06:45:35;;;;;;;;;;;;;;;12.32;86.21;98851.53;4892314;29;19928;-60
2022/10/28 06:48:04;;;;;;;;;;;;;;;12.27;86.06;98870.69;4891529;29;19935;-61
2022/10/28 06:50:32;;;;;;;;;;;;;;;12.31;85.84;98877.97;4893223;29;19935;-60
2022/10/28 06:53:01;;;;;;;;;;;;;;;12.24;86.08;98882.97;4894120;29;20382;-61
2022/10/28 06:55:29;;;;;;;;;;;;;;;12.30;86.00;98872.78;4895210;29;19928;-60
2022/10/28 06:58:00;;;;;;;;;;;;;;;12.33;85.85;98872.19;4895898;29;19927;-60
2022/10/28 07:00:29;;;;;;;;;;;;;;;12.36;85.92;98876.22;4895334;29;19967;-60
2022/10/28 07:03:01;;;;;;;;;;;;;;;12.36;85.66;98896.16;4898036;29;19932;-59
2022/10/28 07:05:29;;;;;;;;;;;;;;;12.38;85.68;98893.91;4884848;29;20022;-60
2022/10/28 07:08:23;;;;;;;;;;;;;;;12.39;85.81;98897.44;4891959;29;19967;-60
2022/10/28 07:11:17;;;;;;;;;;;;;;;12.43;85.75;98893.03;4913756;29;19973;-60
2022/10/28 07:13:47;;;;;;;;;;;;;;;12.46;85.50;98906.84;4889334;29;20361;-60
2022/10/28 07:16:15;;;;;;;;;;;;;;;12.53;85.40;98918.19;4910162;29;19932;-61
2022/10/28 07:18:43;;;;;;;;;;;;;;;12.62;85.45;98920.22;4889185;29;19932;-58
2022/10/28 07:21:12;;;;;;;;;;;;;;;12.63;85.30;98906.31;4905400;29;20329;-60
2022/10/28 07:23:40;;;;;;;;;;;;;;;12.74;84.92;98907.72;4887671;29;20356;-60
2022/10/28 07:26:10;;;;;;;;;;;;;;;12.75;84.52;98886.72;4888693;29;20022;-60
2022/10/28 07:28:38;;;;;;;;;;;;;;;12.83;84.03;98875.09;4887671;29;20350;-60
2022/10/28 07:31:07;;;;;;;;;;;;;;;12.83;83.72;98839.63;4908593;29;19927;-60
2022/10/28 07:33:40;;;;;;;;;;;;;;;13.06;82.72;98786.00;4894475;29;19932;-60
2022/10/28 07:36:11;;;;;;;;;;;;;;;13.02;83.28;98749.53;4897650;29;20293;-62
2022/10/28 07:38:43;;;;;;;;;;;;;;;13.08;82.91;98743.66;4890955;29;19931;-60
2022/10/28 07:41:11;;;;;;;;;;;;;;;13.12;82.73;98776.59;4886897;29;19987;-60
2022/10/28 07:43:39;;;;;;;;;;;;;;;13.31;82.28;98859.13;4905033;29;19935;-59
2022/10/28 07:46:07;;;;;;;;;;;;;;;13.37;82.28;98840.75;4892594;29;19935;-60
2022/10/28 07:49:24;;;;;;;;;;;;;;;13.30;82.94;98838.41;4892013;29;19928;-60
2022/10/28 07:51:55;;;;;;;;;;;;;;;13.42;82.78;98867.91;4889841;29;20539;-60
2022/10/28 07:54:22;;;;;;;;;;;;;;;13.49;82.21;98867.50;4889350;29;19928;-58
2022/10/28 07:56:50;;;;;;;;;;;;;;;13.56;81.76;98835.13;4891877;29;19931;-59
2022/10/28 07:59:20;;;;;;;;;;;;;;;13.67;81.92;98846.63;4890960;29;19975;-61
2022/10/28 08:01:54;;;;;;;;;;;;;;;13.74;81.73;98861.47;4889098;29;19928;-59
2022/10/28 08:04:22;;;;;;;;;;;;;;;13.78;81.69;98859.72;4885579;29;20008;-60
2022/10/28 08:06:50;;;;;;;;;;;;;;;13.87;81.86;98840.69;4889201;29;20498;-60
2022/10/28 08:09:18;;;;;;;;;;;;;;;13.95;81.72;98839.13;4891946;29;19961;-60
2022/10/28 08:11:46;;;;;;;;;;;;;;;14.10;81.15;98845.00;4895713;29;19978;-60
2022/10/28 08:14:14;;;;;;;;;;;;;;;14.26;80.70;98853.63;4910054;29;19933;-60
2022/10/28 08:16:42;;;;;;;;;;;;;;;14.36;80.32;98858.03;4895502;29;20346;-60
2022/10/28 08:19:12;;;;;;;;;;;;;;;14.46;79.95;98852.31;4892202;29;19935;-60
2022/10/28 08:21:40;;;;;;;;;;;;;;;14.58;79.36;98844.34;4894937;29;19935;-59
2022/10/28 08:24:10;;;;;;;;;;;;;;;14.65;78.81;98833.78;4894253;29;19966;-58
2022/10/28 08:26:40;;;;;;;;;;;;;;;14.74;78.82;98844.75;4894834;29;20373;-59
2022/10/28 08:29:09;;;;;;;;;;;;;;;14.78;78.54;98848.47;4895312;29;19978;-58
2022/10/28 08:31:37;;;;;;;;;;;;;;;14.79;78.33;98855.53;4893566;29;19931;-59
2022/10/28 08:34:05;;;;;;;;;;;;;;;14.81;78.00;98857.97;4892287;29;19971;-59
2022/10/28 08:36:34;;;;;;;;;;;;;;;14.87;78.22;98853.97;4893741;29;19927;-59
2022/10/28 08:39:03;;;;;;;;;;;;;;;14.98;77.98;98847.09;4895271;29;19928;-59
2022/10/28 08:41:35;;;;;;;;;;;;;;;14.99;77.88;98856.91;4891419;29;19928;-57
2022/10/28 08:47:15;;;;;;;;;;;;;;;14.99;77.17;98845.16;4895140;29;20381;-59
2022/10/28 08:49:43;;;;;;;;;;;;;;;14.99;76.48;98842.41;4895846;29;19928;-59
2022/10/28 08:52:20;;;;;;;;;;;;;;;14.97;76.98;98829.06;4896979;29;19931;-57
2022/10/28 08:54:49;;;;;;;;;;;;;;;14.89;77.22;98829.84;4891896;29;19928;-59
2022/10/28 08:57:18;;;;;;;;;;;;;;;14.97;77.10;98840.00;4896850;29;19935;-58
2022/10/28 08:59:46;;;;;;;;;;;;;;;14.94;77.05;98838.69;4899300;29;19988;-59
2022/10/28 09:02:21;;;;;;;;;;;;;;;14.95;76.88;98839.50;4899978;29;19928;-58
2022/10/28 09:04:52;;;;;;;;;;;;;;;14.93;76.84;98839.84;4892685;29;20230;-58
2022/10/28 09:07:21;;;;;;;;;;;;;;;14.95;76.91;98836.75;4898264;29;19979;-59
2022/10/28 09:09:50;;;;;;;;;;;;;;;14.96;76.99;98830.16;4890866;29;20363;-58
2022/10/28 09:12:22;;;;;;;;;;;;;;;15.00;76.60;98833.88;4897642;29;19931;-57
2022/10/28 09:14:54;;;;;;;;;;;;;;;15.02;76.61;98831.66;4900608;29;20372;-58
2022/10/28 09:17:24;;;;;;;;;;;;;;;15.07;76.44;98826.00;4906806;29;19938;-58
2022/10/28 09:19:52;;;;;;;;;;;;;;;15.16;76.43;98823.31;4894285;29;19950;-58
2022/10/28 09:22:23;;;;;;;;;;;;;;;15.27;75.88;98829.28;4898422;29;20438;-58
2022/10/28 09:24:56;;;;;;;;;;;;;;;15.35;75.84;98828.50;4896228;29;19932;-58
2022/10/28 09:27:39;;;;;;;;;;;;;;;15.50;75.14;98827.19;4897384;29;19934;-58
2022/10/28 09:30:14;;;;;;;;;;;;;;;15.56;75.01;98829.47;4895017;29;19964;-59
2022/10/28 09:32:43;;;;;;;;;;;;;;;15.70;74.06;98830.13;4895315;29;19928;-58
2022/10/28 09:35:35;;;;;;;;;;;;;;;15.79;73.33;98819.19;4898110;29;20022;-58
2022/10/28 09:38:07;;;;;;;;;;;;;;;15.88;73.06;98821.94;4905424;29;19927;-59
2022/10/28 09:40:36;;;;;;;;;;;;;;;16.02;71.32;98822.53;4905546;29;20361;-59
2022/10/28 09:43:06;;;;;;;;;;;;;;;16.08;71.48;98813.00;4905174;29;19936;-57
2022/10/28 09:45:36;;;;;;;;;;;;;;;16.16;71.16;98816.88;4895532;29;20040;-58
2022/10/28 09:48:09;;;;;;;;;;;;;;;16.26;70.52;98807.50;4893456;29;19935;-59
2022/10/28 09:50:37;;;;;;;;;;;;;;;16.35;69.80;98816.50;4895758;29;19931;-59
2022/10/28 09:53:09;;;;;;;;;;;;;;;16.48;68.93;98810.03;4897496;29;19927;-59
2022/10/28 09:55:37;;;;;;;;;;;;;;;16.62;68.16;98815.28;4897912;29;19967;-59
2022/10/28 09:58:05;;;;;;;;;;;;;;;16.69;67.85;98812.84;4897696;29;19928;-58
2022/10/28 10:00:34;;;;;;;;;;;;;;;16.73;67.70;98811.09;4896357;29;19935;-60
2022/10/28 10:03:02;;;;;;;;;;;;;;;16.79;67.39;98811.72;4896209;29;19928;-59
2022/10/28 10:05:34;;;;;;;;;;;;;;;16.84;66.81;98811.53;4896755;29;19935;-58
2022/10/28 10:08:05;;;;;;;;;;;;;;;16.90;66.95;98810.19;4897184;29;20516;-58
2022/10/28 10:10:34;;;;;;;;;;;;;;;16.97;66.62;98815.97;4899148;29;20396;-58
2022/10/28 10:13:51;;;;;;;;;;;;;;;17.08;65.35;98816.38;4896468;29;19939;-59
2022/10/28 10:16:21;;;;;;;;;;;;;;;17.11;65.17;98813.78;4902779;29;20495;-59
2022/10/28 10:18:50;;;;;;;;;;;;;;;17.17;64.71;98815.22;4900590;29;20336;-59
2022/10/28 10:21:20;;;;;;;;;;;;;;;17.20;65.18;98814.53;4897046;29;19932;-58
2022/10/28 10:23:49;;;;;;;;;;;;;;;17.23;65.48;98819.38;4896275;29;19939;-61
2022/10/28 10:26:19;;;;;;;;;;;;;;;17.28;64.93;98821.91;4892387;29;20026;-58
2022/10/28 10:28:47;;;;;;;;;;;;;;;17.31;64.91;98825.13;4896646;29;19932;-59
2022/10/28 10:31:19;;;;;;;;;;;;;;;17.36;64.75;98822.19;4896568;29;19927;-58
2022/10/28 10:33:49;;;;;;;;;;;;;;;17.46;64.28;98832.78;4897611;29;19927;-59
2022/10/28 10:36:19;;;;;;;;;;;;;;;17.46;64.24;98821.78;4895663;29;20362;-59
2022/10/28 10:38:48;;;;;;;;;;;;;;;17.52;63.98;98820.44;4889234;29;20022;-59
2022/10/28 10:41:30;;;;;;;;;;;;;;;17.60;63.64;98822.34;4897765;29;19934;-59
2022/10/28 10:44:00;;;;;;;;;;;;;;;17.70;63.50;98840.38;4897319;29;20042;-58
2022/10/28 10:46:28;;;;;;;;;;;;;;;17.77;63.07;98832.41;4890249;29;20303;-59
2022/10/28 10:49:21;;;;;;;;;;;;;;;17.86;62.62;98824.91;4900901;29;19931;-59
2022/10/28 10:51:50;;;;;;;;;;;;;;;18.00;62.87;98819.09;4893061;29;20365;-59
2022/10/28 10:54:18;;;;;;;;;;;;;;;18.06;62.07;98809.53;4896276;29;19974;-60
2022/10/28 10:56:47;;;;;;;;;;;;;;;18.08;62.10;98803.69;4897012;29;20535;-66
2022/10/28 10:59:19;;;;;;;;;;;;;;;18.02;62.97;98792.88;4910674;29;20412;-59
2022/10/28 11:01:47;;;;;;;;;;;;;;;17.97;62.44;98795.03;4896213;29;19981;-59
2022/10/28 11:04:16;;;;;;;;;;;;;;;18.02;61.84;98783.84;4896463;29;19976;-59
2022/10/28 11:06:44;;;;;;;;;;;;;;;18.04;62.13;98781.53;4897352;29;19934;-58
2022/10/28 11:09:18;;;;;;;;;;;;;;;18.09;62.27;98773.06;4910554;29;19934;-59
2022/10/28 11:11:46;;;;;;;;;;;;;;;18.16;61.76;98756.00;4896349;29;20356;-59
2022/10/28 11:14:20;;;;;;;;;;;;;;;18.21;61.29;98762.09;4897422;29;19967;-59
2022/10/28 11:16:49;;;;;;;;;;;;;;;18.32;61.19;98752.28;4899964;29;19934;-58
2022/10/28 11:19:21;;;;;;;;;;;;;;;18.38;60.96;98757.56;4896282;29;19978;-59
2022/10/28 11:21:59;;;;;;;;;;;;;;;18.43;61.34;98758.16;4896577;29;19928;-59
2022/10/28 11:24:56;;;;;;;;;;;;;;;18.51;61.06;98767.44;4897726;29;19946;-59
2022/10/28 11:27:28;;;;;;;;;;;;;;;18.54;60.93;98767.56;4910742;29;19979;-59
2022/10/28 11:30:00;;;;;;;;;;;;;;;18.58;60.80;98764.91;4896548;29;19970;-59
2022/10/28 11:32:31;;;;;;;;;;;;;;;18.62;60.73;98757.56;4893751;29;19959;-59
2022/10/28 11:35:02;;;;;;;;;;;;;;;18.67;60.48;98751.03;4897096;29;19934;-59
2022/10/28 11:37:33;;;;;;;;;;;;;;;18.72;59.76;98743.38;4900644;29;19975;-59
2022/10/28 11:40:05;;;;;;;;;;;;;;;18.77;59.63;98743.16;4906870;29;19943;-59
2022/10/28 11:42:34;;;;;;;;;;;;;;;18.88;59.32;98743.50;4887317;29;19939;-59
2022/10/28 11:45:05;;;;;;;;;;;;;;;18.92;59.23;98740.84;4892929;29;19993;-59
2022/10/28 11:47:39;;;;;;;;;;;;;;;18.95;59.29;98737.38;4889791;29;19983;-59
2022/10/28 11:50:18;;;;;;;;;;;;;;;19.05;59.34;98731.41;4888321;29;19928;-60
2022/10/28 11:53:04;;;;;;;;;;;;;;;19.16;58.50;98738.03;4895055;29;19927;-58
2022/10/28 11:55:34;;;;;;;;;;;;;;;19.24;58.61;98737.13;4907445;29;19935;-59
2022/10/28 11:58:04;;;;;;;;;;;;;;;19.35;58.26;98734.69;4891215;29;20533;-57
2022/10/28 12:03:43;;;;;;;;;;;;;;;19.51;57.73;98726.47;4895390;29;19935;-58
2022/10/28 12:06:16;;;;;;;;;;;;;;;19.52;57.58;98725.31;4892245;29;19983;-59
2022/10/28 12:08:48;;;;;;;;;;;;;;;19.49;57.50;98723.25;4894193;29;19932;-59
2022/10/28 12:11:41;;;;;;;;;;;;;;;19.50;57.43;98730.38;4908128;29;20017;-59
2022/10/28 12:14:34;;;;;;;;;;;;;;;19.53;57.44;98729.66;4893638;29;19928;-59
2022/10/28 12:17:11;;;;;;;;;;;;;;;19.51;57.27;98715.44;4889408;29;19927;-59
2022/10/28 12:19:41;;;;;;;;;;;;;;;19.48;57.87;98708.66;4894777;29;20364;-59
2022/10/28 12:22:09;;;;;;;;;;;;;;;19.52;57.65;98708.78;4896087;29;20349;-59
2022/10/28 12:24:40;;;;;;;;;;;;;;;19.53;56.86;98708.41;4897032;29;20338;-59
2022/10/28 12:27:34;;;;;;;;;;;;;;;19.56;57.31;98712.44;4890374;29;20344;-59
2022/10/28 12:30:03;;;;;;;;;;;;;;;19.56;57.63;98713.25;4899171;29;19931;-59
2022/10/28 12:32:34;;;;;;;;;;;;;;;19.58;57.07;98721.16;4900177;29;19942;-59
2022/10/28 12:35:03;;;;;;;;;;;;;;;19.65;57.12;98710.34;4897130;29;19978;-59
2022/10/28 12:37:31;;;;;;;;;;;;;;;19.69;56.73;98721.47;4899118;29;20042;-59
2022/10/28 12:40:00;;;;;;;;;;;;;;;19.71;57.06;98708.97;4898620;29;19935;-58
2022/10/28 12:42:29;;;;;;;;;;;;;;;19.67;57.11;98719.06;4899464;29;19939;-58
2022/10/28 12:44:57;;;;;;;;;;;;;;;19.60;57.15;98713.34;4899073;29;19935;-58
2022/10/28 12:47:27;;;;;;;;;;;;;;;19.56;56.98;98715.19;4892464;29;19961;-58
2022/10/28 12:50:02;;;;;;;;;;;;;;;19.59;57.34;98717.25;4893182;29;19938;-59
2022/10/28 12:52:40;;;;;;;;;;;;;;;19.58;57.01;98718.38;4895926;29;19936;-59
2022/10/28 12:55:15;;;;;;;;;;;;;;;19.56;57.00;98698.66;4902938;29;19950;-58
2022/10/28 12:57:48;;;;;;;;;;;;;;;19.50;57.22;98686.28;4898951;29;19983;-60
2022/10/28 13:00:16;;;;;;;;;;;;;;;19.47;57.37;98690.53;4886286;29;19947;-58
2022/10/28 13:02:47;;;;;;;;;;;;;;;19.42;57.95;98674.25;4900039;29;20350;-59
2022/10/28 13:05:18;;;;;;;;;;;;;;;19.45;57.73;98678.28;4896924;29;19933;-58
2022/10/28 13:07:57;;;;;;;;;;;;;;;19.44;57.91;98679.41;4898462;29;19962;-59
2022/10/28 13:10:26;;;;;;;;;;;;;;;19.45;57.99;98678.28;4886206;29;19928;-59
2022/10/28 13:12:58;;;;;;;;;;;;;;;19.47;57.77;98671.25;4891273;29;19927;-58
2022/10/28 13:15:43;;;;;;;;;;;;;;;19.46;57.63;98679.88;4893673;29;19927;-58
2022/10/28 13:18:21;;;;;;;;;;;;;;;19.46;57.54;98683.44;4904209;29;20010;-59
2022/10/28 13:20:53;;;;;;;;;;;;;;;19.48;57.59;98683.06;4895876;29;19931;-59
2022/10/28 13:23:23;;;;;;;;;;;;;;;19.48;57.40;98677.56;4894494;29;19931;-59
2022/10/28 13:25:57;;;;;;;;;;;;;;;19.57;56.98;98686.47;4898047;29;20375;-59
2022/10/28 13:28:27;;;;;;;;;;;;;;;19.70;56.82;98681.72;4900986;29;19927;-59
2022/10/28 13:30:55;;;;;;;;;;;;;;;19.78;56.25;98687.09;4898302;29;19939;-59